PRIVATE WETTERSTATION BILLIGHEIM-ALLFELD                       ZURCK
Wetterdaten: Mittwoch, 05.01.2022
Datum Zeit Temp. A. Temp. A. min Temp. A. max Feuchte A. Luftdruck Regen Wind Richtung Richtung Sonnenschein ET Solar Taupunkt Windchill Windben Empfang
05.01.2022 00:00 3,3 C 3,3 C 3,3 C 92 % 1000,2 hPa 0,2 l/m 3,2 km/h (1 Bft) S-SW 202 0 min 0,000 mm 0 W/m 2,1 C 3,3 C 14,5 km/h (3 Bft) 97 %
05.01.2022 00:10 3,3 C 3,3 C 3,3 C 92 % 1000,2 hPa 0,0 l/m 3,2 km/h (1 Bft) S 180 0 min 0,000 mm 0 W/m 2,1 C 3,3 C 9,7 km/h (2 Bft) 98 %
05.01.2022 00:20 3,3 C 3,3 C 3,3 C 92 % 1000,1 hPa 0,0 l/m 3,2 km/h (1 Bft) S 180 0 min 0,000 mm 0 W/m 2,1 C 3,3 C 11,3 km/h (2 Bft) 97 %
05.01.2022 00:30 3,3 C 3,3 C 3,3 C 92 % 999,9 hPa 0,2 l/m 1,6 km/h (1 Bft) S 180 0 min 0,000 mm 0 W/m 2,1 C 3,3 C 8,0 km/h (2 Bft) 98 %
05.01.2022 00:40 3,3 C 3,3 C 3,3 C 92 % 1000,0 hPa 0,0 l/m 1,6 km/h (1 Bft) S 180 0 min 0,000 mm 0 W/m 2,1 C 3,3 C 9,7 km/h (2 Bft) 97 %
05.01.2022 00:50 3,4 C 3,3 C 3,4 C 92 % 999,9 hPa 0,2 l/m 3,2 km/h (1 Bft) S 180 0 min 0,000 mm 0 W/m 2,2 C 3,4 C 9,7 km/h (2 Bft) 97 %
05.01.2022 01:00 3,4 C 3,4 C 3,4 C 92 % 999,8 hPa 0,0 l/m 3,2 km/h (1 Bft) S 180 0 min 0,000 mm 0 W/m 2,2 C 3,4 C 11,3 km/h (2 Bft) 98 %
05.01.2022 01:10 3,4 C 3,4 C 3,4 C 92 % 999,7 hPa 0,0 l/m 3,2 km/h (1 Bft) S 180 0 min 0,000 mm 0 W/m 2,2 C 3,4 C 14,5 km/h (3 Bft) 98 %
05.01.2022 01:20 3,5 C 3,4 C 3,5 C 92 % 999,3 hPa 0,2 l/m 3,2 km/h (1 Bft) S 180 0 min 0,000 mm 0 W/m 2,3 C 3,5 C 9,7 km/h (2 Bft) 99 %
05.01.2022 01:30 3,5 C 3,5 C 3,6 C 92 % 999,2 hPa 0,0 l/m 3,2 km/h (1 Bft) S-SO 157 0 min 0,000 mm 0 W/m 2,3 C 3,5 C 11,3 km/h (2 Bft) 99 %
05.01.2022 01:40 3,6 C 3,5 C 3,6 C 92 % 999,1 hPa 0,0 l/m 3,2 km/h (1 Bft) S-SO 157 0 min 0,000 mm 0 W/m 2,4 C 3,6 C 11,3 km/h (2 Bft) 99 %
05.01.2022 01:50 3,6 C 3,6 C 3,6 C 92 % 999,0 hPa 0,2 l/m 3,2 km/h (1 Bft) S 180 0 min 0,000 mm 0 W/m 2,4 C 3,6 C 11,3 km/h (2 Bft) 100 %
05.01.2022 02:00 3,7 C 3,6 C 3,7 C 92 % 998,9 hPa 0,0 l/m 3,2 km/h (1 Bft) S 180 0 min 0,000 mm 0 W/m 2,5 C 3,7 C 9,7 km/h (2 Bft) 100 %
05.01.2022 02:10 3,7 C 3,7 C 3,7 C 92 % 998,9 hPa 0,0 l/m 3,2 km/h (1 Bft) S 180 0 min 0,000 mm 0 W/m 2,5 C 3,7 C 11,3 km/h (2 Bft) 99 %
05.01.2022 02:20 3,7 C 3,7 C 3,8 C 92 % 998,8 hPa 0,0 l/m 3,2 km/h (1 Bft) S 180 0 min 0,000 mm 0 W/m 2,5 C 3,7 C 9,7 km/h (2 Bft) 100 %
05.01.2022 02:30 3,8 C 3,8 C 3,8 C 92 % 999,2 hPa 0,0 l/m 3,2 km/h (1 Bft) S 180 0 min 0,000 mm 0 W/m 2,6 C 3,8 C 11,3 km/h (2 Bft) 99 %
05.01.2022 02:40 3,9 C 3,8 C 3,9 C 92 % 999,3 hPa 0,0 l/m 3,2 km/h (1 Bft) S-SW 202 0 min 0,000 mm 0 W/m 2,7 C 3,9 C 14,5 km/h (3 Bft) 100 %
05.01.2022 02:50 3,9 C 3,9 C 3,9 C 92 % 999,4 hPa 0,0 l/m 4,8 km/h (1 Bft) S-SW 202 0 min 0,000 mm 0 W/m 2,7 C 3,9 C 14,5 km/h (3 Bft) 99 %
05.01.2022 03:00 4,0 C 3,9 C 4,0 C 92 % 999,5 hPa 0,0 l/m 3,2 km/h (1 Bft) S-SW 202 0 min 0,000 mm 0 W/m 2,8 C 4,0 C 11,3 km/h (2 Bft) 100 %
05.01.2022 03:10 4,1 C 4,0 C 4,1 C 92 % 999,6 hPa 0,2 l/m 3,2 km/h (1 Bft) S-SW 202 0 min 0,000 mm 0 W/m 2,9 C 4,1 C 14,5 km/h (3 Bft) 99 %
05.01.2022 03:20 4,1 C 4,1 C 4,1 C 92 % 999,6 hPa 0,0 l/m 6,4 km/h (2 Bft) S-SW 202 0 min 0,000 mm 0 W/m 2,9 C 4,1 C 16,1 km/h (3 Bft) 100 %
05.01.2022 03:30 4,2 C 4,1 C 4,2 C 92 % 999,9 hPa 0,2 l/m 8,0 km/h (2 Bft) S-SW 202 0 min 0,000 mm 0 W/m 3,0 C 2,8 C 17,7 km/h (3 Bft) 99 %
05.01.2022 03:40 4,3 C 4,2 C 4,3 C 92 % 999,6 hPa 0,2 l/m 4,8 km/h (1 Bft) SW 225 0 min 0,000 mm 0 W/m 3,1 C 4,3 C 19,3 km/h (3 Bft) 100 %
05.01.2022 03:50 4,3 C 4,3 C 4,3 C 92 % 999,5 hPa 0,0 l/m 3,2 km/h (1 Bft) SW 225 0 min 0,000 mm 0 W/m 3,1 C 4,3 C 12,9 km/h (3 Bft) 100 %
05.01.2022 04:00 4,4 C 4,3 C 4,4 C 92 % 999,6 hPa 0,0 l/m 1,6 km/h (1 Bft) SW 225 0 min 0,000 mm 0 W/m 3,2 C 4,4 C 11,3 km/h (2 Bft) 100 %
05.01.2022 04:10 4,3 C 4,3 C 4,4 C 92 % 999,6 hPa 0,0 l/m 1,6 km/h (1 Bft) S-SW 202 0 min 0,000 mm 0 W/m 3,1 C 4,3 C 8,0 km/h (2 Bft) 100 %
05.01.2022 04:20 4,4 C 4,3 C 4,4 C 92 % 999,6 hPa 0,4 l/m 3,2 km/h (1 Bft) S-SW 202 0 min 0,000 mm 0 W/m 3,2 C 4,4 C 11,3 km/h (2 Bft) 100 %
05.01.2022 04:30 4,5 C 4,4 C 4,5 C 92 % 999,6 hPa 0,1 l/m 4,8 km/h (1 Bft) S-SW 202 0 min 0,000 mm 0 W/m 3,3 C 4,5 C 20,9 km/h (4 Bft) 100 %
05.01.2022 04:40 4,6 C 4,5 C 4,6 C 92 % 999,7 hPa 0,0 l/m 8,0 km/h (2 Bft) SW 225 0 min 0,000 mm 0 W/m 3,4 C 3,2 C 25,7 km/h (4 Bft) 99 %
05.01.2022 04:50 4,6 C 4,6 C 4,6 C 92 % 999,6 hPa 0,0 l/m 6,4 km/h (2 Bft) S-SW 202 0 min 0,000 mm 0 W/m 3,4 C 4,6 C 20,9 km/h (4 Bft) 100 %
05.01.2022 05:00 4,6 C 4,6 C 4,7 C 92 % 999,6 hPa 0,0 l/m 11,3 km/h (2 Bft) SW 225 0 min 0,000 mm 0 W/m 3,4 C 0,7 C 25,7 km/h (4 Bft) 100 %
05.01.2022 05:10 4,7 C 4,6 C 4,7 C 92 % 999,6 hPa 0,1 l/m 8,0 km/h (2 Bft) SW 225 0 min 0,000 mm 0 W/m 3,5 C 3,3 C 25,7 km/h (4 Bft) 99 %
05.01.2022 05:20 4,7 C 4,7 C 4,7 C 92 % 999,8 hPa 0,2 l/m 14,5 km/h (3 Bft) SW 225 0 min 0,000 mm 0 W/m 3,5 C -1,0 C 32,2 km/h (5 Bft) 100 %
05.01.2022 05:30 4,7 C 4,7 C 4,7 C 92 % 1000,1 hPa 0,2 l/m 11,3 km/h (2 Bft) SW 225 0 min 0,000 mm 0 W/m 3,5 C 0,9 C 27,4 km/h (4 Bft) 100 %
05.01.2022 05:40 4,5 C 4,5 C 4,7 C 92 % 1000,7 hPa 0,2 l/m 14,5 km/h (3 Bft) W-NW 292 0 min 0,000 mm 0 W/m 3,3 C -1,3 C 35,4 km/h (5 Bft) 100 %
05.01.2022 05:50 3,9 C 3,9 C 4,5 C 93 % 1001,0 hPa 0,2 l/m 12,9 km/h (3 Bft) NW 315 0 min 0,000 mm 0 W/m 2,9 C -1,1 C 30,6 km/h (5 Bft) 100 %
05.01.2022 06:00 3,2 C 3,2 C 3,9 C 93 % 1001,3 hPa 0,0 l/m 17,7 km/h (3 Bft) NW 315 0 min 0,000 mm 0 W/m 2,2 C -4,5 C 35,4 km/h (5 Bft) 100 %
05.01.2022 06:10 2,7 C 2,7 C 3,2 C 93 % 1001,5 hPa 0,0 l/m 14,5 km/h (3 Bft) NW 315 0 min 0,000 mm 0 W/m 1,7 C -3,4 C 33,8 km/h (5 Bft) 100 %
05.01.2022 06:20 2,4 C 2,4 C 2,7 C 93 % 1001,6 hPa 0,0 l/m 16,1 km/h (3 Bft) NW 315 0 min 0,000 mm 0 W/m 1,4 C -4,7 C 33,8 km/h (5 Bft) 100 %
05.01.2022 06:30 2,3 C 2,3 C 2,4 C 93 % 1001,9 hPa 0,0 l/m 12,9 km/h (3 Bft) NW 315 0 min 0,000 mm 0 W/m 1,3 C -2,9 C 29,0 km/h (5 Bft) 100 %
05.01.2022 06:40 2,1 C 2,1 C 2,3 C 93 % 1002,4 hPa 0,0 l/m 9,7 km/h (2 Bft) NW 315 0 min 0,000 mm 0 W/m 1,1 C -0,9 C 19,3 km/h (3 Bft) 100 %
05.01.2022 06:50 1,9 C 1,9 C 2,1 C 93 % 1002,7 hPa 0,0 l/m 11,3 km/h (2 Bft) NW 315 0 min 0,000 mm 0 W/m 0,9 C -2,3 C 24,1 km/h (4 Bft) 100 %
05.01.2022 07:00 1,9 C 1,9 C 1,9 C 93 % 1002,8 hPa 0,0 l/m 8,0 km/h (2 Bft) NW 315 0 min 0,000 mm 0 W/m 0,9 C 0,3 C 19,3 km/h (3 Bft) 100 %
05.01.2022 07:10 1,8 C 1,8 C 1,9 C 93 % 1003,2 hPa 0,0 l/m 9,7 km/h (2 Bft) NW 315 0 min 0,000 mm 0 W/m 0,8 C -1,2 C 27,4 km/h (4 Bft) 99 %
05.01.2022 07:20 1,7 C 1,7 C 1,8 C 93 % 1003,6 hPa 0,0 l/m 11,3 km/h (2 Bft) W-NW 292 0 min 0,000 mm 0 W/m 0,7 C -2,6 C 33,8 km/h (5 Bft) 100 %
05.01.2022 07:30 1,6 C 1,6 C 1,7 C 92 % 1003,8 hPa 0,0 l/m 11,3 km/h (2 Bft) W-NW 292 0 min 0,000 mm 0 W/m 0,4 C -2,7 C 32,2 km/h (5 Bft) 100 %
05.01.2022 07:40 1,6 C 1,6 C 1,6 C 92 % 1004,1 hPa 0,0 l/m 8,0 km/h (2 Bft) W-NW 292 0 min 0,000 mm 0 W/m 0,4 C 0,0 C 20,9 km/h (4 Bft) 100 %
05.01.2022 07:50 1,6 C 1,6 C 1,6 C 92 % 1004,3 hPa 0,0 l/m 6,4 km/h (2 Bft) W-NW 292 0 min 0,000 mm 0 W/m 0,4 C 1,6 C 20,9 km/h (4 Bft) 100 %
05.01.2022 08:00 1,6 C 1,6 C 1,6 C 92 % 1004,4 hPa 0,0 l/m 4,8 km/h (1 Bft) W-NW 292 0 min 0,000 mm 0 W/m 0,4 C 1,6 C 17,7 km/h (3 Bft) 100 %
05.01.2022 08:10 1,6 C 1,6 C 1,6 C 92 % 1004,8 hPa 0,0 l/m 3,2 km/h (1 Bft) W 270 0 min 0,000 mm 0 W/m 0,4 C 1,6 C 16,1 km/h (3 Bft) 100 %
05.01.2022 08:20 1,6 C 1,6 C 1,6 C 92 % 1005,0 hPa 0,0 l/m 4,8 km/h (1 Bft) W 270 0 min 0,000 mm 0 W/m 0,4 C 1,6 C 11,3 km/h (2 Bft) 100 %
05.01.2022 08:30 1,6 C 1,6 C 1,6 C 92 % 1005,1 hPa 0,0 l/m 3,2 km/h (1 Bft) W 270 0 min 0,000 mm 0 W/m 0,4 C 1,6 C 19,3 km/h (3 Bft) 100 %
05.01.2022 08:40 1,5 C 1,5 C 1,6 C 92 % 1005,2 hPa 0,0 l/m 3,2 km/h (1 Bft) W 270 0 min 0,000 mm 5 W/m 0,3 C 1,5 C 16,1 km/h (3 Bft) 100 %
05.01.2022 08:50 1,4 C 1,4 C 1,5 C 92 % 1005,6 hPa 0,0 l/m 4,8 km/h (1 Bft) W-NW 292 0 min 0,000 mm 5 W/m 0,2 C 1,4 C 16,1 km/h (3 Bft) 100 %
05.01.2022 09:00 1,4 C 1,4 C 1,4 C 92 % 1005,8 hPa 0,0 l/m 6,4 km/h (2 Bft) W-NW 292 0 min 0,000 mm 7 W/m 0,2 C 1,4 C 19,3 km/h (3 Bft) 100 %
05.01.2022 09:10 1,4 C 1,4 C 1,4 C 92 % 1006,0 hPa 0,0 l/m 6,4 km/h (2 Bft) W 270 0 min 0,000 mm 12 W/m 0,2 C 1,4 C 22,5 km/h (4 Bft) 100 %
05.01.2022 09:30 1,1 C 1,1 C 1,4 C 88 % 1006,4 hPa 0,0 l/m 8,6 km/h (2 Bft) NW 314 0 min 0,000 mm 46 W/m -0,7 C -1,0 C 22,5 km/h (4 Bft) 98 %
05.01.2022 09:40 1,1 C 1,1 C 1,1 C 87 % 1006,8 hPa 0,0 l/m 11,8 km/h (2 Bft) W 275 0 min 0,000 mm 12 W/m -0,8 C -3,6 C 33,8 km/h (5 Bft) 97 %
05.01.2022 09:50 1,1 C 1,1 C 1,1 C 88 % 1006,9 hPa 0,0 l/m 3,9 km/h (1 Bft) W-NW 283 0 min 0,000 mm 44 W/m -0,7 C 1,1 C 16,1 km/h (3 Bft) 97 %
05.01.2022 10:00 1,3 C 1,1 C 1,3 C 88 % 1007,1 hPa 0,0 l/m 10,5 km/h (2 Bft) W 281 0 min 0,025 mm 149 W/m -0,5 C -2,4 C 29,0 km/h (5 Bft) 97 %
05.01.2022 10:10 1,6 C 1,3 C 1,6 C 85 % 1007,2 hPa 0,0 l/m 11,8 km/h (2 Bft) W 261 0 min 0,000 mm 58 W/m -0,6 C -3,0 C 30,6 km/h (5 Bft) 96 %
05.01.2022 10:20 1,4 C 1,4 C 1,6 C 84 % 1007,3 hPa 0,0 l/m 11,7 km/h (2 Bft) W 268 0 min 0,000 mm 63 W/m -1,0 C -3,2 C 27,4 km/h (4 Bft) 98 %
05.01.2022 10:30 1,4 C 1,4 C 1,4 C 84 % 1007,5 hPa 0,0 l/m 7,9 km/h (2 Bft) W-SW 258 0 min 0,000 mm 151 W/m -1,0 C -0,1 C 25,7 km/h (4 Bft) 97 %
05.01.2022 10:40 1,7 C 1,4 C 1,7 C 82 % 1007,7 hPa 0,0 l/m 12,2 km/h (2 Bft) SW 226 0 min 0,000 mm 97 W/m -1,0 C -3,2 C 30,6 km/h (5 Bft) 98 %
05.01.2022 10:50 1,8 C 1,6 C 1,8 C 81 % 1007,7 hPa 0,0 l/m 11,8 km/h (2 Bft) W 263 0 min 0,000 mm 109 W/m -1,1 C -2,8 C 35,4 km/h (5 Bft) 89 %
05.01.2022 11:00 1,8 C 1,8 C 1,8 C 81 % 1008,0 hPa 0,0 l/m 8,1 km/h (2 Bft) W-NW 301 0 min 0,051 mm 81 W/m -1,1 C 0,2 C 24,1 km/h (4 Bft) 99 %
05.01.2022 11:10 1,9 C 1,8 C 1,9 C 79 % 1008,0 hPa 0,0 l/m 13,4 km/h (3 Bft) W 261 10 min 0,000 mm 290 W/m -1,3 C -3,7 C 30,6 km/h (5 Bft) 98 %
05.01.2022 11:20 2,1 C 1,9 C 2,1 C 80 % 1008,2 hPa 0,0 l/m 9,7 km/h (2 Bft) W 267 0 min 0,000 mm 120 W/m -1,0 C -0,9 C 30,6 km/h (5 Bft) 100 %
05.01.2022 11:30 1,9 C 1,9 C 2,1 C 79 % 1008,2 hPa 0,0 l/m 12,3 km/h (3 Bft) W-NW 286 0 min 0,000 mm 91 W/m -1,3 C -3,0 C 33,8 km/h (5 Bft) 100 %
05.01.2022 11:40 1,8 C 1,8 C 1,9 C 79 % 1008,3 hPa 0,0 l/m 12,7 km/h (3 Bft) W-SW 242 0 min 0,000 mm 76 W/m -1,4 C -3,4 C 29,0 km/h (5 Bft) 100 %
05.01.2022 11:50 1,7 C 1,7 C 1,8 C 80 % 1008,2 hPa 0,0 l/m 11,1 km/h (2 Bft) W 271 0 min 0,000 mm 128 W/m -1,4 C -2,4 C 27,4 km/h (4 Bft) 100 %
05.01.2022 12:00 1,8 C 1,7 C 1,8 C 80 % 1008,4 hPa 0,0 l/m 6,9 km/h (2 Bft) W-SW 244 0 min 0,076 mm 111 W/m -1,3 C 1,3 C 24,1 km/h (4 Bft) 100 %
05.01.2022 12:10 1,8 C 1,8 C 1,8 C 81 % 1008,5 hPa 0,0 l/m 6,6 km/h (2 Bft) NW 308 0 min 0,000 mm 62 W/m -1,1 C 1,6 C 27,4 km/h (4 Bft) 100 %
05.01.2022 12:20 1,8 C 1,8 C 1,8 C 81 % 1008,7 hPa 0,0 l/m 8,0 km/h (2 Bft) W-SW 252 0 min 0,000 mm 63 W/m -1,1 C 0,2 C 33,8 km/h (5 Bft) 100 %
05.01.2022 12:30 1,8 C 1,8 C 1,8 C 80 % 1008,9 hPa 0,0 l/m 12,9 km/h (3 Bft) W 268 0 min 0,000 mm 74 W/m -1,3 C -3,5 C 32,2 km/h (5 Bft) 100 %
05.01.2022 12:40 1,7 C 1,7 C 1,8 C 81 % 1008,8 hPa 0,0 l/m 10,3 km/h (2 Bft) W-SW 252 0 min 0,000 mm 88 W/m -1,2 C -1,8 C 27,4 km/h (4 Bft) 100 %
05.01.2022 12:50 1,8 C 1,7 C 1,8 C 80 % 1009,0 hPa 0,0 l/m 10,4 km/h (2 Bft) W-NW 287 0 min 0,000 mm 54 W/m -1,3 C -1,8 C 32,2 km/h (5 Bft) 100 %
05.01.2022 13:00 1,8 C 1,7 C 1,8 C 80 % 1009,1 hPa 0,0 l/m 9,4 km/h (2 Bft) W 270 0 min 0,051 mm 54 W/m -1,3 C -1,0 C 32,2 km/h (5 Bft) 100 %
05.01.2022 13:10 1,8 C 1,8 C 1,8 C 80 % 1009,1 hPa 0,0 l/m 6,7 km/h (2 Bft) NW 313 0 min 0,000 mm 104 W/m -1,3 C 1,5 C 25,7 km/h (4 Bft) 100 %
05.01.2022 13:20 1,8 C 1,8 C 1,8 C 81 % 1009,2 hPa 0,0 l/m 2,5 km/h (1 Bft) W 265 0 min 0,000 mm 60 W/m -1,1 C 1,8 C 17,7 km/h (3 Bft) 100 %
05.01.2022 13:30 1,8 C 1,8 C 1,9 C 79 % 1009,2 hPa 0,0 l/m 11,0 km/h (2 Bft) W-SW 254 0 min 0,000 mm 93 W/m -1,4 C -2,2 C 29,0 km/h (5 Bft) 99 %
05.01.2022 13:40 1,9 C 1,8 C 1,9 C 81 % 1009,1 hPa 0,0 l/m 5,7 km/h (1 Bft) W-SW 254 0 min 0,000 mm 95 W/m -1,0 C 1,9 C 29,0 km/h (5 Bft) 100 %
05.01.2022 13:50 1,9 C 1,9 C 1,9 C 80 % 1009,2 hPa 0,0 l/m 8,6 km/h (2 Bft) W-SW 242 0 min 0,000 mm 70 W/m -1,2 C -0,2 C 24,1 km/h (4 Bft) 100 %
05.01.2022 14:00 1,9 C 1,9 C 1,9 C 80 % 1009,2 hPa 0,0 l/m 9,3 km/h (2 Bft) W 259 0 min 0,051 mm 51 W/m -1,2 C -0,8 C 33,8 km/h (5 Bft) 100 %
05.01.2022 14:10 1,8 C 1,8 C 1,9 C 79 % 1009,2 hPa 0,0 l/m 12,2 km/h (2 Bft) W 261 0 min 0,000 mm 47 W/m -1,4 C -3,1 C 29,0 km/h (5 Bft) 100 %
05.01.2022 14:20 1,8 C 1,8 C 1,9 C 80 % 1009,3 hPa 0,0 l/m 7,9 km/h (2 Bft) W 270 0 min 0,000 mm 53 W/m -1,3 C 0,3 C 29,0 km/h (5 Bft) 100 %
05.01.2022 14:30 1,8 C 1,8 C 1,8 C 79 % 1009,3 hPa 0,0 l/m 11,0 km/h (2 Bft) W 281 0 min 0,000 mm 62 W/m -1,4 C -2,2 C 27,4 km/h (4 Bft) 100 %
05.01.2022 14:40 1,8 C 1,8 C 1,8 C 80 % 1009,8 hPa 0,0 l/m 3,9 km/h (1 Bft) W 268 0 min 0,000 mm 28 W/m -1,3 C 1,8 C 22,5 km/h (4 Bft) 99 %
05.01.2022 14:50 1,8 C 1,8 C 1,8 C 80 % 1010,1 hPa 0,0 l/m 1,6 km/h (1 Bft) NW 326 0 min 0,000 mm 14 W/m -1,3 C 1,8 C 20,9 km/h (4 Bft) 100 %
05.01.2022 15:00 1,8 C 1,8 C 1,8 C 79 % 1010,1 hPa 0,0 l/m 6,5 km/h (2 Bft) W 277 0 min 0,025 mm 18 W/m -1,4 C 1,7 C 29,0 km/h (5 Bft) 100 %
05.01.2022 15:10 1,7 C 1,7 C 1,8 C 79 % 1010,2 hPa 0,0 l/m 1,5 km/h (1 Bft) SW 236 0 min 0,000 mm 23 W/m -1,5 C 1,7 C 17,7 km/h (3 Bft) 100 %
05.01.2022 15:20 1,7 C 1,7 C 1,7 C 79 % 1010,2 hPa 0,0 l/m 10,4 km/h (2 Bft) SW 225 0 min 0,000 mm 32 W/m -1,5 C -1,9 C 29,0 km/h (5 Bft) 100 %
05.01.2022 15:30 1,6 C 1,6 C 1,7 C 78 % 1010,3 hPa 0,0 l/m 12,8 km/h (3 Bft) W-NW 285 0 min 0,000 mm 30 W/m -1,8 C -3,7 C 30,6 km/h (5 Bft) 100 %
05.01.2022 15:40 1,6 C 1,6 C 1,6 C 78 % 1010,3 hPa 0,0 l/m 10,8 km/h (2 Bft) W 261 0 min 0,000 mm 37 W/m -1,8 C -2,3 C 32,2 km/h (5 Bft) 100 %
05.01.2022 15:50 1,6 C 1,6 C 1,6 C 78 % 1010,0 hPa 0,0 l/m 9,5 km/h (2 Bft) W-NW 284 0 min 0,000 mm 21 W/m -1,8 C -1,3 C 29,0 km/h (5 Bft) 100 %
05.01.2022 16:00 1,6 C 1,6 C 1,6 C 79 % 1010,2 hPa 0,0 l/m 9,1 km/h (2 Bft) SW 229 0 min 0,026 mm 19 W/m -1,6 C -0,9 C 32,2 km/h (5 Bft) 100 %
05.01.2022 16:10 1,6 C 1,5 C 1,6 C 79 % 1010,4 hPa 0,0 l/m 5,2 km/h (1 Bft) W-SW 252 0 min 0,000 mm 12 W/m -1,6 C 1,6 C 24,1 km/h (4 Bft) 100 %
05.01.2022 16:20 1,6 C 1,5 C 1,6 C 79 % 1010,3 hPa 0,0 l/m 8,4 km/h (2 Bft) W 268 0 min 0,000 mm 11 W/m -1,6 C -0,3 C 32,2 km/h (5 Bft) 100 %
05.01.2022 16:30 1,6 C 1,5 C 1,6 C 79 % 1010,3 hPa 0,0 l/m 3,8 km/h (1 Bft) W-SW 257 0 min 0,000 mm 5 W/m -1,6 C 1,6 C 22,5 km/h (4 Bft) 100 %
05.01.2022 16:40 1,6 C 1,6 C 1,6 C 79 % 1010,3 hPa 0,0 l/m 6,4 km/h (2 Bft) S-SW 207 0 min 0,000 mm 0 W/m -1,6 C 1,6 C 25,7 km/h (4 Bft) 91 %
05.01.2022 16:50 1,5 C 1,5 C 1,6 C 79 % 1010,5 hPa 0,0 l/m 6,7 km/h (2 Bft) SW 221 0 min 0,000 mm 0 W/m -1,7 C 1,2 C 17,7 km/h (3 Bft) 100 %
05.01.2022 17:00 1,6 C 1,5 C 1,6 C 79 % 1010,5 hPa 0,0 l/m 7,2 km/h (2 Bft) S-SW 208 0 min 0,000 mm 0 W/m -1,6 C 0,8 C 19,3 km/h (3 Bft) 100 %
05.01.2022 17:10 1,6 C 1,5 C 1,6 C 79 % 1010,5 hPa 0,0 l/m 5,2 km/h (1 Bft) S 188 0 min 0,025 mm 0 W/m -1,6 C 1,6 C 19,3 km/h (3 Bft) 100 %
05.01.2022 17:20 1,6 C 1,5 C 1,6 C 79 % 1010,7 hPa 0,0 l/m 9,1 km/h (2 Bft) SW 232 0 min 0,000 mm 0 W/m -1,6 C -0,9 C 27,4 km/h (4 Bft) 100 %
05.01.2022 17:30 1,7 C 1,6 C 1,7 C 79 % 1010,9 hPa 0,0 l/m 3,4 km/h (1 Bft) W-SW 241 0 min 0,000 mm 0 W/m -1,5 C 1,7 C 17,7 km/h (3 Bft) 100 %
05.01.2022 17:40 1,7 C 1,7 C 1,7 C 79 % 1010,9 hPa 0,0 l/m 5,6 km/h (1 Bft) SW 216 0 min 0,000 mm 0 W/m -1,5 C 1,7 C 24,1 km/h (4 Bft) 100 %
05.01.2022 17:50 1,8 C 1,7 C 1,8 C 79 % 1010,9 hPa 0,0 l/m 8,9 km/h (2 Bft) SW 232 0 min 0,000 mm 0 W/m -1,4 C -0,6 C 24,1 km/h (4 Bft) 100 %
05.01.2022 18:00 1,8 C 1,8 C 1,8 C 80 % 1011,2 hPa 0,0 l/m 6,5 km/h (2 Bft) S-SW 209 0 min 0,026 mm 0 W/m -1,3 C 1,7 C 29,0 km/h (5 Bft) 100 %
05.01.2022 18:10 1,8 C 1,8 C 1,8 C 80 % 1011,1 hPa 0,0 l/m 8,2 km/h (2 Bft) SW 225 0 min 0,000 mm 0 W/m -1,3 C 0,1 C 24,1 km/h (4 Bft) 100 %
05.01.2022 18:20 1,8 C 1,8 C 1,8 C 80 % 1011,2 hPa 0,0 l/m 6,0 km/h (2 Bft) W-SW 248 0 min 0,000 mm 0 W/m -1,3 C 1,8 C 25,7 km/h (4 Bft) 100 %
05.01.2022 18:30 1,8 C 1,8 C 1,8 C 80 % 1011,5 hPa 0,0 l/m 7,6 km/h (2 Bft) SW 236 0 min 0,000 mm 0 W/m -1,3 C 0,6 C 22,5 km/h (4 Bft) 100 %
05.01.2022 18:40 1,8 C 1,8 C 1,8 C 80 % 1011,4 hPa 0,0 l/m 6,3 km/h (2 Bft) SW 235 0 min 0,000 mm 0 W/m -1,3 C 1,8 C 29,0 km/h (5 Bft) 100 %
05.01.2022 18:50 1,7 C 1,7 C 1,8 C 80 % 1011,6 hPa 0,0 l/m 6,5 km/h (2 Bft) W 263 0 min 0,000 mm 0 W/m -1,4 C 1,6 C 20,9 km/h (4 Bft) 100 %
05.01.2022 19:00 1,7 C 1,7 C 1,7 C 80 % 1011,6 hPa 0,0 l/m 6,9 km/h (2 Bft) W-SW 257 0 min 0,025 mm 0 W/m -1,4 C 1,2 C 27,4 km/h (4 Bft) 99 %
05.01.2022 19:10 1,7 C 1,7 C 1,7 C 81 % 1011,5 hPa 0,0 l/m 3,4 km/h (1 Bft) W-SW 252 0 min 0,000 mm 0 W/m -1,2 C 1,7 C 22,5 km/h (4 Bft) 100 %
05.01.2022 19:20 1,7 C 1,7 C 1,7 C 81 % 1011,9 hPa 0,0 l/m 2,8 km/h (1 Bft) W-SW 242 0 min 0,000 mm 0 W/m -1,2 C 1,7 C 19,3 km/h (3 Bft) 100 %
05.01.2022 19:30 1,7 C 1,7 C 1,7 C 81 % 1011,9 hPa 0,0 l/m 5,4 km/h (1 Bft) W 266 0 min 0,000 mm 0 W/m -1,2 C 1,7 C 27,4 km/h (4 Bft) 99 %
05.01.2022 19:40 1,7 C 1,7 C 1,7 C 81 % 1011,8 hPa 0,0 l/m 9,0 km/h (2 Bft) W 267 0 min 0,000 mm 0 W/m -1,2 C -0,8 C 22,5 km/h (4 Bft) 100 %
05.01.2022 19:50 1,8 C 1,7 C 1,8 C 82 % 1011,7 hPa 0,0 l/m 11,3 km/h (2 Bft) S 182 0 min 0,000 mm 0 W/m -0,9 C -2,4 C 30,6 km/h (5 Bft) 100 %
05.01.2022 20:00 1,8 C 1,8 C 1,8 C 82 % 1011,8 hPa 0,0 l/m 11,2 km/h (2 Bft) W-SW 252 0 min 0,025 mm 0 W/m -0,9 C -2,4 C 30,6 km/h (5 Bft) 100 %
05.01.2022 20:10 1,8 C 1,8 C 1,8 C 82 % 1011,9 hPa 0,0 l/m 9,8 km/h (2 Bft) W 272 0 min 0,000 mm 0 W/m -0,9 C -1,3 C 29,0 km/h (5 Bft) 100 %
05.01.2022 20:20 1,8 C 1,8 C 1,8 C 82 % 1011,9 hPa 0,0 l/m 8,7 km/h (2 Bft) W-SW 253 0 min 0,000 mm 0 W/m -0,9 C -0,4 C 29,0 km/h (5 Bft) 100 %
05.01.2022 20:30 1,8 C 1,8 C 1,8 C 82 % 1011,9 hPa 0,0 l/m 9,7 km/h (2 Bft) W-SW 253 0 min 0,000 mm 0 W/m -0,9 C -1,2 C 27,4 km/h (4 Bft) 100 %
05.01.2022 20:40 1,9 C 1,8 C 1,9 C 82 % 1012,0 hPa 0,0 l/m 9,6 km/h (2 Bft) SW 233 0 min 0,000 mm 0 W/m -0,8 C -1,0 C 29,0 km/h (5 Bft) 99 %
05.01.2022 20:50 1,9 C 1,9 C 1,9 C 83 % 1012,1 hPa 0,0 l/m 5,2 km/h (1 Bft) SW 236 0 min 0,000 mm 0 W/m -0,7 C 1,9 C 24,1 km/h (4 Bft) 100 %
05.01.2022 21:00 1,9 C 1,9 C 1,9 C 83 % 1012,3 hPa 0,0 l/m 7,4 km/h (2 Bft) W 259 0 min 0,026 mm 0 W/m -0,7 C 0,9 C 22,5 km/h (4 Bft) 100 %
05.01.2022 21:10 1,9 C 1,9 C 1,9 C 83 % 1012,3 hPa 0,0 l/m 8,0 km/h (2 Bft) W-SW 247 0 min 0,000 mm 0 W/m -0,7 C 0,3 C 22,5 km/h (4 Bft) 100 %
05.01.2022 21:20 1,9 C 1,9 C 1,9 C 83 % 1012,4 hPa 0,0 l/m 3,2 km/h (1 Bft) W 270 0 min 0,000 mm 0 W/m -0,7 C 1,9 C 22,5 km/h (4 Bft) 100 %
05.01.2022 21:30 1,9 C 1,9 C 1,9 C 84 % 1012,4 hPa 0,0 l/m 4,8 km/h (1 Bft) W-SW 247 0 min 0,000 mm 0 W/m -0,5 C 1,9 C 25,7 km/h (4 Bft) 100 %
05.01.2022 21:40 1,9 C 1,9 C 1,9 C 84 % 1012,5 hPa 0,0 l/m 4,8 km/h (1 Bft) SW 225 0 min 0,000 mm 0 W/m -0,5 C 1,9 C 19,3 km/h (3 Bft) 90 %
05.01.2022 21:50 1,9 C 1,9 C 1,9 C 84 % 1012,6 hPa 0,0 l/m 4,8 km/h (1 Bft) W-SW 247 0 min 0,000 mm 0 W/m -0,5 C 1,9 C 22,5 km/h (4 Bft) 100 %
05.01.2022 22:00 1,9 C 1,9 C 1,9 C 85 % 1012,6 hPa 0,0 l/m 8,0 km/h (2 Bft) W-SW 247 0 min 0,025 mm 0 W/m -0,3 C 0,3 C 25,7 km/h (4 Bft) 100 %
05.01.2022 22:10 1,9 C 1,9 C 1,9 C 85 % 1012,8 hPa 0,0 l/m 4,8 km/h (1 Bft) W-SW 247 0 min 0,000 mm 0 W/m -0,3 C 1,9 C 20,9 km/h (4 Bft) 100 %
05.01.2022 22:20 1,8 C 1,8 C 1,9 C 86 % 1012,9 hPa 0,0 l/m 6,4 km/h (2 Bft) W 270 0 min 0,000 mm 0 W/m -0,3 C 1,8 C 24,1 km/h (4 Bft) 100 %
05.01.2022 22:30 1,8 C 1,8 C 1,8 C 86 % 1012,9 hPa 0,0 l/m 1,6 km/h (1 Bft) W-SW 247 0 min 0,000 mm 0 W/m -0,3 C 1,8 C 17,7 km/h (3 Bft) 100 %
05.01.2022 22:40 1,7 C 1,7 C 1,8 C 87 % 1012,9 hPa 0,0 l/m 6,4 km/h (2 Bft) W-SW 247 0 min 0,000 mm 0 W/m -0,2 C 1,7 C 29,0 km/h (5 Bft) 100 %
05.01.2022 22:50 1,6 C 1,6 C 1,7 C 88 % 1013,0 hPa 0,0 l/m 3,2 km/h (1 Bft) W-SW 247 0 min 0,000 mm 0 W/m -0,2 C 1,6 C 17,7 km/h (3 Bft) 100 %
05.01.2022 23:00 1,6 C 1,5 C 1,6 C 89 % 1013,1 hPa 0,0 l/m 1,6 km/h (1 Bft) W-SW 247 0 min 0,000 mm 0 W/m -0,0 C 1,6 C 14,5 km/h (3 Bft) 100 %
05.01.2022 23:10 1,6 C 1,5 C 1,6 C 89 % 1013,0 hPa 0,0 l/m 3,2 km/h (1 Bft) W-SW 247 0 min 0,000 mm 0 W/m -0,0 C 1,6 C 16,1 km/h (3 Bft) 100 %
05.01.2022 23:20 1,6 C 1,6 C 1,6 C 89 % 1013,1 hPa 0,0 l/m 1,6 km/h (1 Bft) SW 225 0 min 0,000 mm 0 W/m -0,0 C 1,6 C 12,9 km/h (3 Bft) 100 %
05.01.2022 23:30 1,6 C 1,6 C 1,6 C 89 % 1013,2 hPa 0,0 l/m 4,8 km/h (1 Bft) SW 225 0 min 0,000 mm 0 W/m -0,0 C 1,6 C 17,7 km/h (3 Bft) 100 %
05.01.2022 23:40 1,4 C 1,4 C 1,6 C 90 % 1013,3 hPa 0,0 l/m 3,2 km/h (1 Bft) SW 225 0 min 0,000 mm 0 W/m -0,1 C 1,4 C 17,7 km/h (3 Bft) 100 %
05.01.2022 23:50 1,4 C 1,4 C 1,4 C 91 % 1013,2 hPa 0,0 l/m 1,6 km/h (1 Bft) SW 225 0 min 0,000 mm 0 W/m 0,1 C 1,4 C 11,3 km/h (2 Bft) 100 %
_ Min-Zeit 09:30 09:30 09:40 15:30 02:20 - 15:10 - - - - - 15:30 06:20 00:30 10:50
Minimum _ 1,1 C 1,1 C 1,1 C 78 % 998,8 hPa - 1,5 km/h (1 Bft) - - - - - -1,8 C -4,7 C 8,0 km/h (2 Bft) 89 %
_ Max-Zeit 05:00 05:20 05:00 05:50 23:40 04:20 06:00 - - 11:10 12:00 11:10 05:10 04:50 05:40 02:20
Maximum _ 4,7 C 4,7 C 4,7 C 93 % 1013,3 hPa 0,4 l/m 17,7 km/h
NW (3 Bft)
- - 10 min 0,076 mm 290 W/m 3,5 C 4,6 C 35,4 km/h
W-NW (5 Bft)
100 %
Durchschnitt _ 2,3 C 2,3 C 2,3 C 86 % 1006,8 hPa #3,0 l/m 7,0 km/h (2 Bft) W - #10 min. #0,457 mm 62 W/m 0,2 C 0,7 C 22,7 km/h (4 Bft) 99 %
PRIVATE WETTERSTATION BILLIGHEIM-ALLFELD - www.neckar-odenwald-wetter.de - Holger Sonntag